Time;durP1;ratioP1;P1;durP2;ratioP2;P2;SDS_P1;SDS_P2;PMS_P1;PMS_P2;Temp;Humidity;BMP_temperature;BMP_pressure;BME280_temperature;BME280_humidity;BME280_pressure;Samples;Min_cycle;Max_cycle;Signal;HPM_P1;HPM_P2
2024/03/13 00:01:52;;;;;;;55.75;38.30;;;;;;;8.63;78.35;98214.72;5035465;28;20041;-75
2024/03/13 00:04:17;;;;;;;55.67;40.35;;;;;;;8.61;77.81;98216.81;5029835;28;20036;-75
2024/03/13 00:06:43;;;;;;;54.92;40.40;;;;;;;8.56;78.01;98205.94;5031952;28;20016;-75
2024/03/13 00:09:09;;;;;;;57.25;38.83;;;;;;;8.64;78.05;98224.38;5025101;28;20032;-76
2024/03/13 00:11:35;;;;;;;53.67;38.90;;;;;;;8.61;78.29;98216.81;5032454;28;20472;-75
2024/03/13 00:14:02;;;;;;;58.25;41.05;;;;;;;8.63;77.99;98220.09;5070111;28;20044;-75
2024/03/13 00:16:27;;;;;;;57.08;39.92;;;;;;;8.60;78.65;98215.16;5045273;28;20044;-76
2024/03/13 00:18:53;;;;;;;55.30;38.88;;;;;;;8.65;78.22;98223.34;5037471;28;20036;-75
2024/03/13 00:21:18;;;;;;;55.83;38.85;;;;;;;8.65;78.51;98228.72;5051805;28;20070;-76
2024/03/13 00:23:43;;;;;;;55.78;38.53;;;;;;;8.71;78.46;98227.78;5041670;28;20128;-76
2024/03/13 00:26:10;;;;;;;53.90;38.42;;;;;;;8.48;78.40;98196.34;5044366;28;20024;-76
2024/03/13 00:28:35;;;;;;;55.75;38.33;;;;;;;8.67;78.57;98221.25;5059482;28;20047;-75
2024/03/13 00:31:03;;;;;;;58.60;38.92;;;;;;;8.61;78.13;98216.81;5052697;28;20025;-75
2024/03/13 00:33:29;;;;;;;56.28;40.58;;;;;;;8.69;78.14;98229.88;5054952;28;20031;-75
2024/03/13 00:35:55;;;;;;;56.42;39.35;;;;;;;8.72;77.97;98226.75;5047383;28;20050;-74
2024/03/13 00:38:21;;;;;;;53.08;37.20;;;;;;;8.71;78.30;98219.72;5048930;28;20439;-75
2024/03/13 00:40:48;;;;;;;56.95;39.05;;;;;;;8.67;78.39;98218.56;5062163;28;20095;-75
2024/03/13 00:43:13;;;;;;;51.85;38.45;;;;;;;8.60;78.08;98209.78;5040731;28;20032;-76
2024/03/13 00:45:39;;;;;;;52.35;38.15;;;;;;;8.67;78.15;98221.25;5025118;28;20083;-76
2024/03/13 00:48:05;;;;;;;51.88;37.67;;;;;;;8.62;77.89;98205.00;5058259;28;20469;-75
2024/03/13 00:50:30;;;;;;;57.53;39.25;;;;;;;8.62;78.14;98196.97;5056115;28;20020;-75
2024/03/13 00:52:56;;;;;;;56.20;38.22;;;;;;;8.54;77.35;98183.91;5037454;28;20033;-75
2024/03/13 00:55:23;;;;;;;54.05;37.97;;;;;;;8.71;78.07;98214.34;5026918;28;20032;-75
2024/03/13 00:57:49;;;;;;;54.25;37.83;;;;;;;8.62;77.93;98205.00;5037912;28;20123;-75
2024/03/13 01:00:18;;;;;;;56.05;38.42;;;;;;;8.64;78.21;98200.22;5028574;28;20055;-75
2024/03/13 01:02:44;;;;;;;58.92;40.05;;;;;;;8.59;78.16;98194.75;5044416;28;20063;-75
2024/03/13 01:05:13;;;;;;;55.08;38.15;;;;;;;8.69;78.18;98203.84;5059963;28;20471;-75
2024/03/13 01:07:38;;;;;;;55.90;36.92;;;;;;;8.56;78.36;98189.84;5042026;28;20051;-75
2024/03/13 01:10:05;;;;;;;53.72;36.85;;;;;;;8.72;78.41;98213.31;5048408;28;20025;-75
2024/03/13 01:12:31;;;;;;;57.28;38.15;;;;;;;8.64;78.10;98195.69;5036560;28;20040;-74
2024/03/13 01:14:57;;;;;;;52.40;36.28;;;;;;;8.62;78.08;98186.22;5030351;28;20024;-75
2024/03/13 01:17:22;;;;;;;56.35;37.42;;;;;;;8.56;78.49;98181.78;5033908;28;20131;-74
2024/03/13 01:19:48;;;;;;;53.60;37.25;;;;;;;8.66;78.69;98200.84;5055624;28;20078;-74
2024/03/13 01:22:17;;;;;;;51.35;36.72;;;;;;;8.69;78.85;98200.34;5030548;28;20036;-75
2024/03/13 01:24:43;;;;;;;55.45;36.97;;;;;;;8.54;78.84;98167.78;5035512;28;20075;-75
2024/03/13 01:27:08;;;;;;;56.38;37.90;;;;;;;8.70;78.55;98196.63;5023532;28;20064;-74
2024/03/13 01:29:36;;;;;;;53.00;37.05;;;;;;;8.46;78.89;98173.47;5035165;28;20024;-75
2024/03/13 01:32:01;;;;;;;52.78;36.63;;;;;;;8.60;78.19;98188.31;5019651;28;20546;-75
2024/03/13 01:34:27;;;;;;;53.47;37.28;;;;;;;8.65;79.05;98191.13;5035756;28;20112;-75
2024/03/13 01:39:36;;;;;;;48.22;34.58;;;;;;;8.55;78.95;98174.78;5048325;28;20059;-76
2024/03/13 01:56:24;;;;;;;45.83;33.28;;;;;;;8.50;79.22;98182.69;5073825;28;20063;-75
2024/03/13 01:58:52;;;;;;;45.33;31.50;;;;;;;8.55;78.46;98190.88;5043455;28;20032;-75
2024/03/13 02:04:03;;;;;;;46.35;32.63;;;;;;;8.33;79.53;98172.63;5078541;28;20032;-74
2024/03/13 02:06:29;;;;;;;43.58;30.50;;;;;;;8.40;79.12;98166.38;5037427;28;20040;-75
2024/03/13 02:08:57;;;;;;;47.58;31.75;;;;;;;8.27;79.13;98149.44;5039843;28;20040;-74
2024/03/13 02:11:22;;;;;;;45.00;31.83;;;;;;;8.39;79.62;98170.91;5042509;28;20095;-75
2024/03/13 02:13:50;;;;;;;42.72;30.95;;;;;;;8.35;78.84;98164.38;5022250;28;20075;-76
2024/03/13 02:16:15;;;;;;;41.47;29.38;;;;;;;8.46;79.41;98177.00;5032517;28;20035;-75
2024/03/13 02:18:41;;;;;;;41.58;29.02;;;;;;;8.44;79.39;98179.09;5061487;28;20032;-75
2024/03/13 02:21:07;;;;;;;46.75;30.50;;;;;;;8.37;78.76;98153.41;5024552;28;20484;-75
2024/03/13 02:23:33;;;;;;;42.78;29.55;;;;;;;8.39;78.76;98164.72;5050623;28;20041;-75
2024/03/13 02:25:58;;;;;;;45.20;30.35;;;;;;;8.41;78.95;98162.63;5044193;28;20479;-75
2024/03/13 02:28:34;;;;;;;44.63;31.23;;;;;;;8.34;79.41;98152.81;5033768;28;20123;-76
2024/03/13 02:31:00;;;;;;;43.97;30.90;;;;;;;8.45;78.75;98169.19;5042333;28;20574;-76
2024/03/13 02:33:26;;;;;;;43.60;31.50;;;;;;;8.44;78.90;98167.53;5034540;28;20105;-76
2024/03/13 02:35:51;;;;;;;43.10;29.58;;;;;;;8.48;79.04;98171.38;5013215;28;20075;-76
2024/03/13 02:38:17;;;;;;;42.72;30.15;;;;;;;8.26;78.70;98138.94;5055534;28;20035;-76
2024/03/13 02:40:42;;;;;;;44.85;31.02;;;;;;;8.48;78.76;98163.34;5036858;28;20032;-76
2024/03/13 02:43:08;;;;;;;45.45;31.15;;;;;;;8.40;79.11;98155.63;5063805;28;20036;-75
2024/03/13 02:45:34;;;;;;;42.85;30.70;;;;;;;8.46;79.53;98165.44;5035613;28;20036;-75
2024/03/13 02:47:59;;;;;;;43.45;29.70;;;;;;;8.50;79.21;98166.59;5054101;28;20021;-75
2024/03/13 02:50:25;;;;;;;41.15;29.10;;;;;;;8.47;78.67;98161.72;5049834;28;20447;-75
2024/03/13 02:52:50;;;;;;;43.80;31.40;;;;;;;8.21;79.38;98118.09;5063784;28;20048;-75
2024/03/13 02:55:16;;;;;;;41.80;30.30;;;;;;;8.42;78.68;98153.53;5027891;28;20043;-75
2024/03/13 02:57:44;;;;;;;44.85;30.73;;;;;;;8.44;79.39;98156.81;5038307;28;20016;-75
2024/03/13 03:00:10;;;;;;;48.03;32.97;;;;;;;8.34;79.06;98135.91;5052228;28;20032;-75
2024/03/13 03:02:36;;;;;;;45.63;31.42;;;;;;;8.39;78.86;98141.41;5007899;28;20052;-75
2024/03/13 03:05:03;;;;;;;46.22;31.35;;;;;;;8.56;78.79;98166.50;5035279;28;20032;-75
2024/03/13 03:07:31;;;;;;;44.47;31.10;;;;;;;8.60;78.28;98172.22;5045626;28;20052;-75
2024/03/13 03:09:56;;;;;;;48.55;32.75;;;;;;;8.53;78.35;98171.50;5035894;28;20080;-75
2024/03/13 03:12:22;;;;;;;46.58;32.25;;;;;;;8.42;78.57;98161.59;5035422;28;20032;-75
2024/03/13 03:14:47;;;;;;;48.25;33.28;;;;;;;8.40;78.37;98147.59;5046426;28;20884;-75
2024/03/13 03:17:14;;;;;;;46.65;32.03;;;;;;;8.51;78.59;98158.34;5048440;28;20060;-75
2024/03/13 03:19:40;;;;;;;51.17;34.28;;;;;;;8.60;78.55;98172.22;5031534;28;20032;-75
2024/03/13 03:22:05;;;;;;;52.88;35.13;;;;;;;8.50;78.51;98166.59;5032769;28;20027;-75
2024/03/13 03:24:31;;;;;;;47.80;33.58;;;;;;;8.53;78.69;98158.91;5027751;28;20035;-74
2024/03/13 03:26:57;;;;;;;47.38;34.45;;;;;;;8.53;78.32;98171.50;5047555;28;20024;-74
2024/03/13 03:29:22;;;;;;;51.30;34.22;;;;;;;8.45;78.06;98153.09;5052554;28;20047;-74
2024/03/13 03:31:49;;;;;;;49.20;34.10;;;;;;;8.38;78.82;98136.28;5010366;28;20112;-75
2024/03/13 03:34:14;;;;;;;53.72;34.60;;;;;;;8.44;78.73;98163.00;5054489;28;20388;-74
2024/03/13 03:36:42;;;;;;;50.53;34.88;;;;;;;8.34;79.09;98162.72;5050253;28;20021;-74
2024/03/13 03:39:15;;;;;;;49.33;34.80;;;;;;;8.29;78.75;98144.66;5049418;28;20142;-74
2024/03/13 03:41:46;;;;;;;55.35;35.17;;;;;;;8.45;78.76;98169.19;5034163;28;20033;-75
2024/03/13 03:44:12;;;;;;;51.10;35.13;;;;;;;8.43;78.91;98165.88;5042943;28;20036;-74
2024/03/13 03:46:38;;;;;;;49.08;34.83;;;;;;;8.41;79.76;98163.44;5034110;28;20123;-74
2024/03/13 03:49:05;;;;;;;48.95;33.47;;;;;;;8.33;79.10;98155.75;5044124;28;20484;-75
2024/03/13 03:51:31;;;;;;;50.53;34.92;;;;;;;8.38;79.40;98163.09;5041624;28;20476;-75
2024/03/13 03:53:57;;;;;;;47.20;32.30;;;;;;;8.31;79.47;98163.19;5044003;28;20036;-76
2024/03/13 03:56:23;;;;;;;48.50;33.38;;;;;;;8.29;78.92;98155.38;5030198;28;20037;-75
2024/03/13 03:58:50;;;;;;;47.47;32.58;;;;;;;8.19;79.09;98139.00;5044318;28;20059;-75
2024/03/13 04:01:16;;;;;;;47.60;33.20;;;;;;;8.08;78.84;98131.75;5037765;28;20055;-75
2024/03/13 04:03:42;;;;;;;48.13;33.97;;;;;;;8.15;78.92;98151.22;5064562;28;20032;-74
2024/03/13 04:06:07;;;;;;;46.05;32.45;;;;;;;8.15;79.12;98151.22;5024605;28;20358;-74
2024/03/13 04:08:33;;;;;;;46.35;31.52;;;;;;;8.08;79.46;98134.44;5049715;28;20118;-75
2024/03/13 04:10:58;;;;;;;45.78;31.30;;;;;;;8.11;79.34;98141.19;5052088;28;20581;-75
2024/03/13 04:13:24;;;;;;;45.85;32.13;;;;;;;8.12;79.33;98145.53;5030605;28;20036;-75
2024/03/13 04:15:50;;;;;;;45.47;31.08;;;;;;;8.02;79.16;98135.34;5043622;28;20047;-74
2024/03/13 04:18:17;;;;;;;43.85;30.67;;;;;;;8.04;78.77;98146.66;5049651;28;20041;-75
2024/03/13 04:20:45;;;;;;;45.10;31.02;;;;;;;8.11;79.01;98162.66;5046485;28;20548;-75
2024/03/13 04:23:13;;;;;;;46.47;30.98;;;;;;;7.87;79.32;98134.94;5042876;28;20041;-75
2024/03/13 04:25:43;;;;;;;41.35;29.42;;;;;;;8.02;79.45;98159.50;5031006;28;20024;-75
2024/03/13 04:28:08;;;;;;;44.38;30.15;;;;;;;7.89;79.44;98148.16;5054069;28;20040;-75
2024/03/13 04:30:34;;;;;;;45.15;31.73;;;;;;;7.75;79.81;98131.41;5053278;28;20417;-75
2024/03/13 04:32:59;;;;;;;43.28;30.65;;;;;;;7.80;78.96;98154.84;5039314;28;20037;-75
2024/03/13 04:35:25;;;;;;;44.72;31.02;;;;;;;7.84;79.01;98172.94;5009210;28;20050;-74
2024/03/13 04:37:51;;;;;;;43.92;31.67;;;;;;;7.72;78.68;98164.06;5040830;28;20484;-74
2024/03/13 04:40:18;;;;;;;49.03;30.95;;;;;;;7.67;79.33;98166.59;5048543;28;20024;-76
2024/03/13 04:42:44;;;;;;;43.58;29.05;;;;;;;7.54;79.29;98145.31;5051749;28;20245;-76
2024/03/13 04:45:10;;;;;;;43.05;31.25;;;;;;;7.58;79.00;98162.59;5009141;28;20518;-76
2024/03/13 04:47:35;;;;;;;41.92;29.77;;;;;;;7.53;79.62;98151.72;5025635;28;20037;-75
2024/03/13 04:50:02;;;;;;;43.70;30.75;;;;;;;7.61;79.74;98168.28;5033868;28;20108;-75
2024/03/13 04:52:29;;;;;;;45.70;30.88;;;;;;;7.54;79.39;98156.03;5043626;28;20082;-75
2024/03/13 04:54:55;;;;;;;41.35;29.60;;;;;;;7.50;79.80;98160.19;5030206;28;20079;-74
2024/03/13 04:57:20;;;;;;;45.55;30.85;;;;;;;7.46;79.57;98159.03;5065415;28;20541;-74
2024/03/13 04:59:45;;;;;;;42.05;29.98;;;;;;;7.54;79.58;98175.59;5048146;28;20111;-75
2024/03/13 05:02:11;;;;;;;44.28;31.25;;;;;;;7.41;79.24;98150.84;5035963;28;20047;-75
2024/03/13 05:04:36;;;;;;;45.28;31.40;;;;;;;7.47;79.13;98172.19;5024535;28;20109;-76
2024/03/13 05:07:02;;;;;;;46.90;31.30;;;;;;;7.55;79.50;98179.09;5063238;28;20033;-76
2024/03/13 05:09:30;;;;;;;40.75;29.38;;;;;;;7.38;79.22;98154.78;5032595;28;20492;-76
2024/03/13 05:11:56;;;;;;;40.28;29.05;;;;;;;7.49;79.31;98174.66;5044510;28;20063;-76
2024/03/13 05:14:22;;;;;;;51.20;32.55;;;;;;;7.54;80.04;98177.44;5067537;23;20049;-74
2024/03/13 05:16:47;;;;;;;42.33;30.08;;;;;;;7.54;79.25;98177.44;5067728;28;20044;-75
2024/03/13 05:19:13;;;;;;;43.85;31.10;;;;;;;7.48;80.15;98170.34;5078070;28;20031;-76
2024/03/13 05:21:38;;;;;;;44.40;30.83;;;;;;;7.54;79.98;98182.81;5087269;28;20046;-76
2024/03/13 05:24:04;;;;;;;40.88;29.58;;;;;;;7.52;79.83;98179.53;5099824;28;20391;-76
2024/03/13 05:26:30;;;;;;;44.67;31.10;;;;;;;7.50;80.39;98176.28;5102388;28;20027;-76
2024/03/13 05:28:56;;;;;;;43.78;29.90;;;;;;;7.46;80.32;98169.75;5099996;28;20366;-76
2024/03/13 05:31:21;;;;;;;46.85;30.10;;;;;;;7.66;80.20;98202.47;5076876;28;20556;-76
2024/03/13 05:33:47;;;;;;;42.22;28.55;;;;;;;7.57;80.27;98187.72;5100445;28;20417;-75
2024/03/13 05:36:13;;;;;;;39.58;28.13;;;;;;;7.57;80.21;98183.19;5122152;27;20508;-75
2024/03/13 05:38:38;;;;;;;43.90;30.25;;;;;;;7.54;80.39;98199.72;5101800;28;20019;-74
2024/03/13 05:41:05;;;;;;;42.63;29.30;;;;;;;7.61;80.99;98200.44;5097496;28;20069;-75
2024/03/13 05:43:31;;;;;;;41.78;29.48;;;;;;;7.71;80.66;98215.19;5113570;28;20035;-76
2024/03/13 05:45:56;;;;;;;45.17;31.92;;;;;;;7.63;81.16;98202.94;5081790;28;20036;-75
2024/03/13 05:48:22;;;;;;;48.00;30.88;;;;;;;7.74;80.65;98218.25;5087042;28;20051;-76
2024/03/13 05:50:48;;;;;;;49.03;32.92;;;;;;;7.80;80.68;98217.31;5083132;28;20375;-75
2024/03/13 05:53:13;;;;;;;46.78;32.58;;;;;;;7.77;80.73;98215.09;5103130;28;20024;-75
2024/03/13 05:55:39;;;;;;;44.65;32.65;;;;;;;7.85;80.50;98228.19;5085786;28;20050;-75
2024/03/13 05:58:04;;;;;;;53.75;36.40;;;;;;;7.82;80.53;98222.47;5100754;28;20488;-74
2024/03/13 06:00:29;;;;;;;53.05;35.85;;;;;;;7.78;80.60;98222.09;5113278;28;20048;-74
2024/03/13 06:02:55;;;;;;;50.10;33.80;;;;;;;7.70;81.56;98209.03;5098398;28;20024;-74
2024/03/13 06:05:21;;;;;;;55.70;37.55;;;;;;;7.85;81.09;98227.38;5101564;28;20080;-76
2024/03/13 06:07:47;;;;;;;53.10;36.28;;;;;;;7.78;80.67;98205.19;5079766;28;20024;-77
2024/03/13 06:10:12;;;;;;;49.97;33.85;;;;;;;7.86;81.65;98213.75;5073540;28;20368;-77
2024/03/13 06:12:38;;;;;;;56.22;36.22;;;;;;;7.83;80.67;98214.22;5080445;28;20019;-77
2024/03/13 06:15:07;;;;;;;47.42;33.38;;;;;;;7.96;81.57;98229.31;5079700;28;20061;-76
2024/03/13 06:17:36;;;;;;;47.65;32.60;;;;;;;7.95;81.10;98228.50;5068356;28;20062;-75
2024/03/13 06:20:11;;;;;;;43.75;31.70;;;;;;;8.07;81.51;98237.41;5105379;28;20479;-76
2024/03/13 06:22:37;;;;;;;48.30;33.08;;;;;;;8.05;81.05;98228.75;5070205;28;20472;-76
2024/03/13 06:25:06;;;;;;;48.30;33.35;;;;;;;8.05;81.23;98227.94;5100097;28;20066;-76
2024/03/13 06:27:33;;;;;;;43.95;31.33;;;;;;;8.16;81.07;98245.94;5058850;28;20032;-76
2024/03/13 06:30:00;;;;;;;45.15;30.60;;;;;;;8.19;81.76;98251.66;5076508;28;20069;-76
2024/03/13 06:32:26;;;;;;;45.33;31.02;;;;;;;8.16;81.39;98245.94;5090242;28;20036;-75
2024/03/13 06:34:52;;;;;;;47.42;32.63;;;;;;;8.09;81.80;98238.00;5098791;28;20023;-76
2024/03/13 06:37:17;;;;;;;43.55;30.83;;;;;;;8.13;81.13;98241.03;5079910;28;20034;-76
2024/03/13 06:39:43;;;;;;;46.03;31.02;;;;;;;8.21;81.69;98254.91;5064700;28;20028;-76
2024/03/13 06:42:11;;;;;;;45.72;31.38;;;;;;;8.27;81.13;98253.25;5081994;28;20050;-75
2024/03/13 06:44:37;;;;;;;43.78;29.65;;;;;;;8.23;81.34;98247.50;5086991;28;20047;-75
2024/03/13 06:47:03;;;;;;;45.92;30.02;;;;;;;8.28;80.92;98247.63;5100244;28;20027;-75
2024/03/13 06:49:28;;;;;;;41.03;29.58;;;;;;;8.24;81.13;98233.00;5090884;28;20024;-75
2024/03/13 06:51:54;;;;;;;42.13;29.02;;;;;;;8.32;81.42;98238.09;5107435;28;20066;-76
2024/03/13 06:54:19;;;;;;;43.10;29.73;;;;;;;8.43;80.62;98251.75;5092078;28;20470;-75
2024/03/13 06:56:47;;;;;;;42.03;30.67;;;;;;;8.48;80.56;98255.41;5071797;28;20035;-75
2024/03/13 06:59:16;;;;;;;45.70;29.40;;;;;;;8.40;80.42;98241.50;5081567;28;20023;-75
2024/03/13 07:01:44;;;;;;;38.72;28.33;;;;;;;8.47;80.88;98247.59;5094972;28;20039;-76
2024/03/13 07:04:09;;;;;;;42.22;28.63;;;;;;;8.47;80.33;98248.38;5100554;28;20043;-76
2024/03/13 07:06:34;;;;;;;42.47;29.20;;;;;;;8.54;81.24;98259.03;5094320;28;20043;-76
2024/03/13 07:09:00;;;;;;;37.03;27.42;;;;;;;8.52;80.76;98242.34;5098558;28;20043;-75
2024/03/13 07:11:25;;;;;;;40.42;28.33;;;;;;;8.53;80.53;98235.94;5079717;28;20035;-76
2024/03/13 07:13:51;;;;;;;38.90;27.33;;;;;;;8.48;80.14;98231.25;5082164;28;20043;-75
2024/03/13 07:16:16;;;;;;;39.17;28.25;;;;;;;8.51;80.16;98254.13;5103702;28;20539;-75
2024/03/13 07:18:41;;;;;;;41.55;28.75;;;;;;;8.50;80.38;98249.78;5084315;28;20043;-75
2024/03/13 07:21:07;;;;;;;44.85;30.85;;;;;;;8.42;80.67;98244.78;5094173;28;20032;-75
2024/03/13 07:23:33;;;;;;;41.97;29.20;;;;;;;8.45;80.84;98244.31;5102520;28;20023;-75
2024/03/13 07:26:00;;;;;;;42.05;28.48;;;;;;;8.43;80.35;98243.72;5099329;28;20036;-76
2024/03/13 07:28:26;;;;;;;43.22;29.90;;;;;;;8.48;80.35;98249.22;5085220;28;20523;-76
2024/03/13 07:30:51;;;;;;;48.40;34.05;;;;;;;8.53;80.49;98255.53;5092413;28;20027;-76
2024/03/13 07:33:17;;;;;;;46.50;32.30;;;;;;;8.61;80.66;98259.75;5063317;28;20027;-76
2024/03/13 07:35:42;;;;;;;38.22;27.52;;;;;;;8.47;80.37;98226.91;5071469;28;20108;-76
2024/03/13 07:38:11;;;;;;;39.20;27.73;;;;;;;8.72;80.24;98272.38;5103046;28;20027;-76
2024/03/13 07:40:40;;;;;;;38.63;27.48;;;;;;;8.59;81.09;98259.19;5081175;28;20035;-76
2024/03/13 07:43:08;;;;;;;38.25;25.73;;;;;;;8.79;80.07;98255.13;5094853;28;20031;-76
2024/03/13 07:45:37;;;;;;;37.50;25.90;;;;;;;8.90;79.67;98272.28;5096703;28;20035;-75
2024/03/13 07:48:09;;;;;;;33.92;23.95;;;;;;;8.89;79.09;98258.03;5073211;28;20019;-76
2024/03/13 07:50:36;;;;;;;32.72;23.38;;;;;;;9.01;78.68;98260.72;5083167;28;20119;-76
2024/03/13 07:53:03;;;;;;;33.83;24.60;;;;;;;9.01;78.63;98255.34;5105199;28;20027;-76
2024/03/13 07:55:29;;;;;;;35.47;24.10;;;;;;;9.07;78.62;98249.06;5100117;28;20097;-76
2024/03/13 07:57:54;;;;;;;30.08;20.52;;;;;;;9.06;78.04;98242.06;5085432;28;20058;-76
2024/03/13 08:00:22;;;;;;;29.10;21.30;;;;;;;9.05;77.65;98245.81;5083194;28;20062;-75
2024/03/13 08:02:48;;;;;;;32.85;22.85;;;;;;;9.17;77.24;98259.25;5087527;28;20039;-76
2024/03/13 08:05:14;;;;;;;29.75;22.30;;;;;;;9.16;77.49;98252.22;5068133;28;20436;-75
2024/03/13 08:07:44;;;;;;;29.15;21.75;;;;;;;9.32;76.74;98262.25;5097681;28;20051;-76
2024/03/13 08:10:10;;;;;;;30.10;21.85;;;;;;;9.44;76.28;98260.38;5106186;28;20043;-76
2024/03/13 08:12:35;;;;;;;28.65;21.30;;;;;;;9.40;76.65;98241.25;5086256;28;20023;-75
2024/03/13 08:15:01;;;;;;;28.80;22.08;;;;;;;9.43;76.51;98239.94;5098936;28;20126;-76
2024/03/13 08:17:27;;;;;;;24.23;18.35;;;;;;;9.43;76.00;98227.31;5096570;28;20060;-76
2024/03/13 08:19:53;;;;;;;25.05;18.80;;;;;;;9.61;74.89;98256.72;5080775;28;20035;-76
2024/03/13 08:22:18;;;;;;;22.35;16.27;;;;;;;9.69;75.20;98261.75;5115465;28;20517;-75
2024/03/13 08:24:44;;;;;;;20.65;14.85;;;;;;;9.66;73.89;98248.78;5067052;28;20410;-76
2024/03/13 08:27:10;;;;;;;18.20;14.27;;;;;;;9.70;73.21;98255.34;5100711;28;20019;-76
2024/03/13 08:29:36;;;;;;;18.85;15.15;;;;;;;9.81;72.84;98261.72;5102492;28;20032;-76
2024/03/13 08:32:05;;;;;;;21.65;16.10;;;;;;;9.73;72.46;98249.47;5094137;28;20015;-76
2024/03/13 08:34:32;;;;;;;22.73;18.38;;;;;;;9.85;72.46;98267.47;5082926;28;20028;-75
2024/03/13 08:36:58;;;;;;;24.05;19.38;;;;;;;9.83;72.22;98258.78;5111288;28;20566;-75
2024/03/13 08:39:27;;;;;;;22.60;18.17;;;;;;;9.90;72.83;98264.84;5086223;28;20056;-75
2024/03/13 08:41:54;;;;;;;20.08;16.73;;;;;;;10.01;72.62;98274.78;5101282;28;20070;-75
2024/03/13 08:44:19;;;;;;;21.85;16.95;;;;;;;9.96;72.40;98269.28;5114621;28;20055;-75
2024/03/13 08:46:44;;;;;;;20.38;16.33;;;;;;;10.11;72.43;98283.88;5107982;28;20082;-75
2024/03/13 08:49:10;;;;;;;21.83;15.98;;;;;;;10.20;72.07;98292.38;5091418;27;20023;-76
2024/03/13 08:51:35;;;;;;;19.75;15.77;;;;;;;10.21;71.39;98291.34;5087985;28;20053;-71
2024/03/13 08:54:01;;;;;;;19.45;15.73;;;;;;;10.01;71.54;98266.72;5103252;28;20114;-76
2024/03/13 08:56:27;;;;;;;25.65;17.50;;;;;;;10.04;71.02;98263.53;5078304;28;20036;-75
2024/03/13 08:58:52;;;;;;;22.63;18.75;;;;;;;10.15;71.34;98289.63;5081963;28;20031;-76
2024/03/13 09:01:18;;;;;;;21.83;17.75;;;;;;;10.09;71.19;98285.97;5097637;28;20080;-76
2024/03/13 09:03:44;;;;;;;19.63;16.35;;;;;;;10.20;71.88;98297.78;5100479;28;20032;-75
2024/03/13 09:06:15;;;;;;;17.13;14.25;;;;;;;10.20;71.00;98290.53;5073504;28;20036;-75
2024/03/13 09:08:44;;;;;;;18.70;14.73;;;;;;;10.17;71.06;98311.72;5099623;28;20391;-76
2024/03/13 09:11:12;;;;;;;18.00;14.43;;;;;;;10.12;70.82;98307.06;5084956;28;20027;-75
2024/03/13 09:13:40;;;;;;;18.48;14.20;;;;;;;10.05;70.71;98309.03;5082351;28;20046;-76
2024/03/13 09:16:05;;;;;;;16.20;13.70;;;;;;;9.96;70.89;98298.88;5100095;28;20175;-76
2024/03/13 09:18:31;;;;;;;17.02;13.00;;;;;;;9.93;70.90;98315.50;5118390;27;20078;-76
2024/03/13 09:20:56;;;;;;;15.65;12.02;;;;;;;10.06;70.59;98326.00;5071499;28;20833;-76
2024/03/13 09:23:22;;;;;;;13.27;10.68;;;;;;;9.95;70.10;98318.75;5105811;28;20055;-75
2024/03/13 09:25:48;;;;;;;16.95;11.93;;;;;;;9.96;70.35;98317.72;5068320;28;20026;-76
2024/03/13 09:28:14;;;;;;;16.20;12.45;;;;;;;9.96;70.10;98313.16;5082189;28;20040;-76
2024/03/13 09:30:40;;;;;;;14.38;12.05;;;;;;;10.02;70.46;98322.13;5075987;28;20039;-76
2024/03/13 09:33:08;;;;;;;14.15;10.20;;;;;;;9.89;70.17;98322.41;5105720;28;20401;-75
2024/03/13 09:35:34;;;;;;;14.50;11.00;;;;;;;9.86;70.56;98318.31;5079600;28;20031;-75
2024/03/13 09:37:59;;;;;;;15.05;11.52;;;;;;;9.67;70.30;98306.88;5082302;28;20043;-75
2024/03/13 09:40:24;;;;;;;13.35;9.77;;;;;;;9.71;69.91;98313.41;5113992;28;20151;-75
2024/03/13 09:42:53;;;;;;;11.82;9.40;;;;;;;9.77;69.66;98305.47;5095336;28;20399;-76
2024/03/13 09:45:22;;;;;;;12.40;9.93;;;;;;;9.81;69.77;98314.69;5079486;28;20020;-75
2024/03/13 09:47:49;;;;;;;12.95;9.93;;;;;;;9.84;69.74;98325.00;5096220;28;20042;-75
2024/03/13 09:50:16;;;;;;;12.98;10.07;;;;;;;9.88;69.63;98326.13;5082623;28;20030;-75
2024/03/13 09:52:42;;;;;;;13.13;10.40;;;;;;;9.93;69.97;98331.63;5103910;27;20118;-75
2024/03/13 09:55:12;;;;;;;13.05;10.63;;;;;;;9.83;70.57;98312.56;5097214;28;20102;-75
2024/03/13 09:57:37;;;;;;;11.25;9.55;;;;;;;9.91;69.60;98328.38;5087301;28;20040;-74
2024/03/13 10:00:05;;;;;;;12.63;10.23;;;;;;;9.91;69.81;98325.69;5070860;28;20023;-75
2024/03/13 10:02:34;;;;;;;10.52;9.38;;;;;;;10.02;69.58;98343.66;5104400;28;20035;-74
2024/03/13 10:05:00;;;;;;;10.68;8.95;;;;;;;9.99;69.57;98338.78;5075367;28;20020;-75
2024/03/13 10:07:26;;;;;;;12.15;9.18;;;;;;;9.94;69.39;98323.31;5091411;28;20111;-76
2024/03/13 10:09:53;;;;;;;11.88;8.77;;;;;;;9.69;69.65;98310.16;5103620;28;20093;-75
2024/03/13 10:12:21;;;;;;;10.85;8.68;;;;;;;9.94;69.59;98341.34;5096530;28;20490;-76
2024/03/13 10:14:50;;;;;;;10.80;9.10;;;;;;;9.97;68.95;98335.47;5112328;27;20106;-75
2024/03/13 10:17:18;;;;;;;10.75;8.73;;;;;;;10.17;68.82;98360.16;5085475;28;20040;-77
2024/03/13 10:19:46;;;;;;;11.35;8.85;;;;;;;9.99;69.32;98344.16;5096530;28;20023;-76
2024/03/13 10:22:11;;;;;;;10.77;9.15;;;;;;;10.16;69.34;98347.75;5080367;28;20039;-76
2024/03/13 10:24:41;;;;;;;12.23;9.20;;;;;;;10.26;68.74;98361.44;5114485;27;20034;-76
2024/03/13 10:27:09;;;;;;;11.45;9.43;;;;;;;10.26;68.28;98334.53;5082069;28;20039;-76
2024/03/13 10:29:35;;;;;;;10.50;9.13;;;;;;;10.29;68.32;98345.59;5094735;28;20027;-76
2024/03/13 10:32:01;;;;;;;11.40;9.48;;;;;;;10.32;68.12;98336.25;5113188;28;20031;-76
2024/03/13 10:34:27;;;;;;;15.48;9.70;;;;;;;10.42;67.80;98339.13;5091131;28;20203;-77
2024/03/13 10:36:52;;;;;;;10.95;8.95;;;;;;;10.43;67.52;98340.78;5069267;28;20040;-76
2024/03/13 10:39:18;;;;;;;10.63;8.68;;;;;;;10.28;67.79;98337.78;5083886;28;20026;-76
2024/03/13 10:41:48;;;;;;;11.23;9.60;;;;;;;10.39;67.95;98345.00;5105125;28;20042;-76
2024/03/13 10:44:14;;;;;;;11.45;9.38;;;;;;;10.55;67.49;98336.16;5102624;28;20441;-76
2024/03/13 10:46:41;;;;;;;11.77;9.43;;;;;;;10.71;67.50;98350.75;5094766;28;20031;-76
2024/03/13 10:49:15;;;;;;;12.57;10.27;;;;;;;10.60;67.55;98320.09;5091754;28;20031;-76
2024/03/13 10:51:41;;;;;;;11.60;9.13;;;;;;;10.70;67.18;98335.63;5101705;28;20028;-76
2024/03/13 10:54:10;;;;;;;12.98;9.50;;;;;;;10.84;66.90;98342.34;5106445;28;20386;-76
2024/03/13 10:56:36;;;;;;;11.93;9.48;;;;;;;10.88;66.62;98338.94;5089812;28;20047;-76
2024/03/13 10:59:02;;;;;;;9.88;8.80;;;;;;;10.83;66.12;98330.75;5088484;28;20032;-76
2024/03/13 11:01:29;;;;;;;9.65;8.73;;;;;;;10.84;66.10;98316.22;5071161;28;20036;-76
2024/03/13 11:04:01;;;;;;;11.43;8.35;;;;;;;11.01;65.83;98333.25;5112229;28;20031;-76
2024/03/13 11:06:29;;;;;;;11.65;9.23;;;;;;;11.08;65.34;98343.88;5112547;28;20067;-76
2024/03/13 11:08:55;;;;;;;9.55;8.50;;;;;;;10.88;65.68;98316.53;5084852;28;20045;-76
2024/03/13 11:11:21;;;;;;;10.80;8.27;;;;;;;10.95;65.28;98317.22;5093755;28;20055;-76
2024/03/13 11:13:53;;;;;;;11.98;9.75;;;;;;;11.15;65.41;98344.53;5082105;28;20644;-76
2024/03/13 11:16:22;;;;;;;10.40;9.30;;;;;;;11.22;65.10;98336.25;5096867;28;20031;-75
2024/03/13 11:18:50;;;;;;;12.52;9.63;;;;;;;11.27;65.86;98330.97;5096720;28;20115;-76
2024/03/13 11:21:38;;;;;;;10.40;9.30;;;;;;;11.32;65.58;98331.06;5080561;28;20043;-76
2024/03/13 11:24:06;;;;;;;9.15;8.10;;;;;;;11.38;65.40;98325.47;5080297;28;20076;-76
2024/03/13 11:26:38;;;;;;;9.90;7.80;;;;;;;11.41;64.32;98321.47;5111135;28;20038;-76
2024/03/13 11:29:11;;;;;;;7.10;6.40;;;;;;;11.38;63.27;98321.97;5106566;28;20027;-76
2024/03/13 11:31:38;;;;;;;8.75;7.05;;;;;;;11.32;63.78;98302.19;5088831;22;20075;-77
2024/03/13 11:34:05;;;;;;;9.80;8.25;;;;;;;11.37;63.83;98321.13;5055127;28;20056;-77
2024/03/13 11:36:30;;;;;;;9.18;7.65;;;;;;;11.37;64.38;98314.94;5063716;28;20044;-77
2024/03/13 11:38:56;;;;;;;9.10;7.65;;;;;;;11.57;63.73;98316.06;5053601;28;20089;-77
2024/03/13 11:41:22;;;;;;;9.68;7.60;;;;;;;11.67;63.77;98299.19;5069095;28;20096;-77